Time;durP1;ratioP1;P1;durP2;ratioP2;P2;SDS_P1;SDS_P2;PMS_P1;PMS_P2;Temp;Humidity;BMP_temperature;BMP_pressure;BME280_temperature;BME280_humidity;BME280_pressure;Samples;Min_cycle;Max_cycle;Signal;HPM_P1;HPM_P2
2023/02/06 00:02:25;;;;;;;2.13;1.40;;;;;;;;;;5097628;28;20206;-71
2023/02/06 00:04:54;;;;;;;2.43;1.50;;;;;;;;;;5097561;28;20696;-71
2023/02/06 00:07:22;;;;;;;2.97;1.40;;;;;;;;;;5097923;28;20209;-70
2023/02/06 00:09:50;;;;;;;4.30;1.50;;;;;;;;;;5097918;28;20205;-71
2023/02/06 00:12:18;;;;;;;4.30;1.83;;;;;;;;;;5097643;28;20211;-71
2023/02/06 00:14:46;;;;;;;2.10;1.03;;;;;;;;;;5097903;28;20233;-71
2023/02/06 00:17:14;;;;;;;3.70;1.53;;;;;;;;;;5097644;28;20219;-71
2023/02/06 00:19:43;;;;;;;2.77;1.23;;;;;;;;;;5097387;28;20216;-71
2023/02/06 00:22:13;;;;;;;3.70;2.00;;;;;;;;;;5097493;28;20565;-71
2023/02/06 00:24:41;;;;;;;6.73;1.10;;;;;;;;;;5097384;28;20284;-71
2023/02/06 00:27:09;;;;;;;4.00;1.40;;;;;;;;;;5097186;28;20251;-71
2023/02/06 00:29:37;;;;;;;5.20;1.53;;;;;;;;;;5097834;28;20208;-71
2023/02/06 00:32:05;;;;;;;2.97;1.70;;;;;;;;;;5097620;28;20233;-71
2023/02/06 00:34:33;;;;;;;2.53;1.30;;;;;;;;;;5097312;28;20289;-72
2023/02/06 00:37:01;;;;;;;4.37;1.70;;;;;;;;;;5097201;28;20358;-71
2023/02/06 00:39:30;;;;;;;3.97;1.40;;;;;;;;;;5097481;28;20546;-71
2023/02/06 00:41:58;;;;;;;1.40;1.30;;;;;;;;;;5097345;28;20198;-71
2023/02/06 00:44:26;;;;;;;2.00;1.20;;;;;;;;;;5097538;28;20312;-71
2023/02/06 00:46:54;;;;;;;4.63;1.77;;;;;;;;;;5097298;28;20633;-71
2023/02/06 00:49:22;;;;;;;3.37;1.73;;;;;;;;;;5097384;28;20236;-71
2023/02/06 00:51:50;;;;;;;3.23;1.70;;;;;;;;;;5097272;28;20681;-71
2023/02/06 00:54:19;;;;;;;3.40;1.77;;;;;;;;;;5100213;28;20585;-71
2023/02/06 00:56:49;;;;;;;3.20;1.70;;;;;;;;;;5100745;28;20229;-71
2023/02/06 00:59:17;;;;;;;2.77;1.50;;;;;;;;;;5100877;28;20240;-71
2023/02/06 01:01:45;;;;;;;1.77;1.23;;;;;;;;;;5100960;28;20300;-71
2023/02/06 01:04:13;;;;;;;2.23;1.40;;;;;;;;;;5100889;28;20225;-72
2023/02/06 01:06:41;;;;;;;1.87;1.50;;;;;;;;;;5100776;28;20814;-71
2023/02/06 01:09:09;;;;;;;2.30;1.50;;;;;;;;;;5100967;28;20201;-71
2023/02/06 01:11:37;;;;;;;3.03;1.43;;;;;;;;;;5100743;28;20288;-71
2023/02/06 01:14:06;;;;;;;4.47;1.77;;;;;;;;;;5100838;28;20308;-71
2023/02/06 01:16:34;;;;;;;4.73;1.53;;;;;;;;;;5100650;28;20635;-72
2023/02/06 01:19:02;;;;;;;5.33;1.80;;;;;;;;;;5100762;28;20216;-71
2023/02/06 01:21:30;;;;;;;4.43;1.23;;;;;;;;;;5100516;28;20209;-71
2023/02/06 01:23:58;;;;;;;3.10;1.60;;;;;;;;;;5100407;28;20689;-71
2023/02/06 01:26:27;;;;;;;4.50;1.53;;;;;;;;;;5100416;28;20237;-71
2023/02/06 01:28:55;;;;;;;2.07;1.30;;;;;;;;;;5100668;28;20202;-72
2023/02/06 01:31:26;;;;;;;1.83;1.70;;;;;;;;;;5100619;28;20237;-71
2023/02/06 01:33:55;;;;;;;1.70;1.30;;;;;;;;;;5090661;28;20222;-71
2023/02/06 01:36:23;;;;;;;3.70;1.67;;;;;;;;;;5093674;28;20234;-71
2023/02/06 01:38:51;;;;;;;3.83;1.60;;;;;;;;;;5099908;28;20240;-71
2023/02/06 01:41:20;;;;;;;1.90;1.70;;;;;;;;;;5099799;28;20732;-72
2023/02/06 01:44:06;;;;;;;3.90;1.47;;;;;;;;;;5089127;28;20225;-71
2023/02/06 01:46:35;;;;;;;2.17;1.43;;;;;;;;;;5100231;28;20236;-71
2023/02/06 01:49:03;;;;;;;5.77;1.60;;;;;;;;;;5100357;28;20212;-72
2023/02/06 01:51:33;;;;;;;1.97;1.40;;;;;;;;;;5099784;28;20634;-71
2023/02/06 01:54:04;;;;;;;2.37;1.60;;;;;;;;;;5099872;28;20588;-72
2023/02/06 01:56:34;;;;;;;5.13;1.70;;;;;;;;;;5099606;28;20607;-72
2023/02/06 01:59:04;;;;;;;3.77;2.33;;;;;;;;;;5099740;28;20244;-71
2023/02/06 02:01:32;;;;;;;5.30;1.73;;;;;;;;;;5100332;28;20201;-72
2023/02/06 02:04:05;;;;;;;1.97;1.73;;;;;;;;;;5098799;28;20268;-71
2023/02/06 02:06:34;;;;;;;2.30;1.80;;;;;;;;;;5097435;28;20418;-72
2023/02/06 02:09:02;;;;;;;2.67;1.77;;;;;;;;;;5097809;28;20205;-72
2023/02/06 02:11:32;;;;;;;2.47;2.27;;;;;;;;;;5097392;28;20674;-72
2023/02/06 02:14:00;;;;;;;1.70;1.60;;;;;;;;;;5097561;28;20253;-72
2023/02/06 02:16:35;;;;;;;5.13;1.97;;;;;;;;;;5097566;28;20582;-71
2023/02/06 02:19:37;;;;;;;2.10;1.73;;;;;;;;;;5098005;28;20295;-71
2023/02/06 02:22:24;;;;;;;3.70;1.57;;;;;;;;;;5037045;28;20225;-72
2023/02/06 02:25:02;;;;;;;4.27;1.50;;;;;;;;;;5037063;28;20258;-71
2023/02/06 02:27:39;;;;;;;3.20;1.90;;;;;;;;;;5077671;28;20251;-71
2023/02/06 02:30:30;;;;;;;2.27;1.77;;;;;;;;;;5099557;28;20217;-71
2023/02/06 02:33:22;;;;;;;1.83;1.60;;;;;;;;;;5079216;28;20765;-71
2023/02/06 02:35:53;;;;;;;3.87;1.90;;;;;;;;;;5098757;28;20765;-71
2023/02/06 02:38:27;;;;;;;5.57;2.00;;;;;;;;;;5099195;28;20648;-71
2023/02/06 02:40:57;;;;;;;2.00;1.80;;;;;;;;;;5098749;28;20744;-71
2023/02/06 02:43:32;;;;;;;2.70;1.80;;;;;;;;;;5098809;28;20304;-72
2023/02/06 02:46:02;;;;;;;3.53;1.70;;;;;;;;;;5098969;28;20228;-71
2023/02/06 02:48:34;;;;;;;2.80;1.70;;;;;;;;;;5098818;28;20206;-71
2023/02/06 02:51:03;;;;;;;2.40;1.93;;;;;;;;;;5098833;28;20601;-71
2023/02/06 02:53:31;;;;;;;2.10;1.77;;;;;;;;;;5098897;28;20257;-72
2023/02/06 02:55:59;;;;;;;1.63;1.40;;;;;;;;;;5098728;28;20205;-71
2023/02/06 02:58:30;;;;;;;3.07;1.50;;;;;;;;;;5098906;28;20205;-71
2023/02/06 03:01:00;;;;;;;3.13;1.83;;;;;;;;;;5098961;28;20288;-66
2023/02/06 03:03:32;;;;;;;3.17;1.77;;;;;;;;;;5098799;28;20253;-68
2023/02/06 03:06:10;;;;;;;2.33;1.53;;;;;;;;;;5098306;28;20633;-68
2023/02/06 03:08:42;;;;;;;3.57;1.93;;;;;;;;;;5098853;28;20209;-68
2023/02/06 03:11:12;;;;;;;3.60;2.00;;;;;;;;;;5098204;28;20273;-68
2023/02/06 03:13:43;;;;;;;3.47;1.80;;;;;;;;;;5098614;28;20240;-69
2023/02/06 03:16:14;;;;;;;2.30;1.73;;;;;;;;;;5097778;28;20289;-68
2023/02/06 03:18:43;;;;;;;8.77;1.87;;;;;;;;;;5098562;28;20217;-68
2023/02/06 03:21:15;;;;;;;2.60;1.70;;;;;;;;;;5098357;28;20201;-68
2023/02/06 03:23:44;;;;;;;4.33;1.90;;;;;;;;;;5098466;28;20228;-68
2023/02/06 03:26:14;;;;;;;4.50;2.00;;;;;;;;;;5097807;28;20211;-69
2023/02/06 03:28:44;;;;;;;5.33;2.20;;;;;;;;;;5098085;28;20572;-68
2023/02/06 03:31:14;;;;;;;3.33;2.00;;;;;;;;;;5096737;28;20236;-68
2023/02/06 03:33:44;;;;;;;3.57;2.17;;;;;;;;;;5096644;28;20253;-68
2023/02/06 03:36:16;;;;;;;4.27;1.80;;;;;;;;;;5096793;28;20225;-68
2023/02/06 03:38:44;;;;;;;3.03;1.87;;;;;;;;;;5096660;28;20292;-68
2023/02/06 03:41:13;;;;;;;2.50;2.00;;;;;;;;;;5096375;28;20566;-68
2023/02/06 03:43:43;;;;;;;1.90;1.70;;;;;;;;;;5096450;28;20221;-68
2023/02/06 03:46:16;;;;;;;3.77;2.13;;;;;;;;;;5096759;28;20201;-68
2023/02/06 03:48:48;;;;;;;4.20;2.27;;;;;;;;;;5096560;28;20634;-68
2023/02/06 03:51:19;;;;;;;2.30;2.10;;;;;;;;;;5094046;28;20204;-69
2023/02/06 03:53:49;;;;;;;2.37;2.17;;;;;;;;;;5096623;28;20217;-68
2023/02/06 03:56:20;;;;;;;3.67;2.73;;;;;;;;;;5093923;28;20208;-68
2023/02/06 03:58:48;;;;;;;2.83;2.37;;;;;;;;;;5096468;28;20560;-68
2023/02/06 04:01:16;;;;;;;5.07;2.67;;;;;;;;;;5096492;28;20439;-68
2023/02/06 04:03:44;;;;;;;3.87;2.37;;;;;;;;;;5093888;28;20994;-68
2023/02/06 04:06:12;;;;;;;3.20;2.70;;;;;;;;;;5096504;28;20444;-68
2023/02/06 04:08:41;;;;;;;3.83;2.90;;;;;;;;;;5096580;28;20487;-68
2023/02/06 04:11:09;;;;;;;4.83;2.83;;;;;;;;;;5096175;28;20431;-68
2023/02/06 04:13:37;;;;;;;4.57;2.53;;;;;;;;;;5096300;28;21053;-68
2023/02/06 04:16:05;;;;;;;2.70;2.50;;;;;;;;;;5094324;28;20859;-69
2023/02/06 04:18:33;;;;;;;3.83;2.70;;;;;;;;;;5096772;28;20610;-68
2023/02/06 04:21:04;;;;;;;4.33;2.57;;;;;;;;;;5096396;28;20213;-69
2023/02/06 04:23:32;;;;;;;3.70;2.50;;;;;;;;;;5096646;28;20455;-69
2023/02/06 04:26:02;;;;;;;2.77;2.57;;;;;;;;;;5096097;28;20198;-68
2023/02/06 04:28:30;;;;;;;4.63;2.50;;;;;;;;;;5098345;28;20224;-69
2023/02/06 04:30:58;;;;;;;4.93;3.00;;;;;;;;;;5100269;28;20466;-69
2023/02/06 04:33:26;;;;;;;5.07;3.17;;;;;;;;;;5098105;28;20888;-69
2023/02/06 04:35:54;;;;;;;3.23;2.80;;;;;;;;;;5098228;28;20271;-68
2023/02/06 04:38:22;;;;;;;3.53;2.60;;;;;;;;;;5099968;28;20467;-68
2023/02/06 04:40:50;;;;;;;3.23;2.90;;;;;;;;;;5100231;28;20244;-68
2023/02/06 04:43:19;;;;;;;4.97;3.37;;;;;;;;;;5100996;28;20495;-68
2023/02/06 04:45:47;;;;;;;5.40;3.30;;;;;;;;;;5101354;28;20440;-68
2023/02/06 04:48:15;;;;;;;4.27;2.90;;;;;;;;;;5100572;28;20479;-68
2023/02/06 04:50:43;;;;;;;4.87;3.20;;;;;;;;;;5101129;28;20828;-68
2023/02/06 04:53:11;;;;;;;4.00;2.67;;;;;;;;;;5101061;28;20241;-68
2023/02/06 04:55:39;;;;;;;3.83;3.23;;;;;;;;;;5100991;28;20439;-68
2023/02/06 04:58:07;;;;;;;6.67;3.37;;;;;;;;;;5086883;28;20209;-68
2023/02/06 05:00:36;;;;;;;2.90;2.63;;;;;;;;;;5100088;28;20518;-68
2023/02/06 05:03:05;;;;;;;4.63;2.90;;;;;;;;;;5101175;28;20506;-69
2023/02/06 05:05:33;;;;;;;3.90;3.50;;;;;;;;;;5099932;28;20494;-68
2023/02/06 05:08:01;;;;;;;5.63;3.57;;;;;;;;;;5098795;28;21051;-68
2023/02/06 05:10:29;;;;;;;4.37;3.90;;;;;;;;;;5098595;28;20446;-68
2023/02/06 05:12:57;;;;;;;3.30;2.90;;;;;;;;;;5088532;28;20512;-68
2023/02/06 05:15:25;;;;;;;3.37;3.03;;;;;;;;;;5095798;28;20443;-68
2023/02/06 05:17:55;;;;;;;3.43;3.13;;;;;;;;;;5100904;28;20523;-68
2023/02/06 05:20:23;;;;;;;4.67;3.40;;;;;;;;;;5100116;28;20233;-68
2023/02/06 05:22:51;;;;;;;3.23;2.93;;;;;;;;;;5100537;28;20520;-68
2023/02/06 05:25:19;;;;;;;4.17;3.30;;;;;;;;;;5100627;28;20236;-68
2023/02/06 05:27:47;;;;;;;5.57;3.70;;;;;;;;;;5100351;28;20257;-68
2023/02/06 05:30:15;;;;;;;9.43;3.90;;;;;;;;;;5100320;28;20858;-68
2023/02/06 05:32:43;;;;;;;3.93;3.43;;;;;;;;;;5100650;28;20225;-68
2023/02/06 05:35:12;;;;;;;3.97;3.40;;;;;;;;;;5091671;28;20197;-68
2023/02/06 05:37:40;;;;;;;5.70;3.70;;;;;;;;;;5100252;28;20467;-68
2023/02/06 05:40:10;;;;;;;7.30;3.90;;;;;;;;;;5099600;28;20584;-68
2023/02/06 05:42:38;;;;;;;4.37;3.53;;;;;;;;;;5099334;28;20439;-68
2023/02/06 05:45:07;;;;;;;7.83;3.80;;;;;;;;;;5098198;28;20444;-68
2023/02/06 05:47:35;;;;;;;4.90;4.40;;;;;;;;;;5098196;28;20515;-68
2023/02/06 05:50:03;;;;;;;3.83;3.50;;;;;;;;;;5097985;28;20471;-68
2023/02/06 05:52:32;;;;;;;4.13;3.73;;;;;;;;;;5098142;28;20202;-68
2023/02/06 05:55:00;;;;;;;5.27;3.80;;;;;;;;;;5098288;28;20450;-68
2023/02/06 05:57:28;;;;;;;4.53;3.83;;;;;;;;;;5097793;28;20463;-68
2023/02/06 05:59:56;;;;;;;5.60;3.67;;;;;;;;;;5099793;28;20842;-68
2023/02/06 06:02:24;;;;;;;6.13;4.90;;;;;;;;;;5099893;28;20206;-68
2023/02/06 06:04:52;;;;;;;4.13;3.73;;;;;;;;;;5099938;28;20206;-68
2023/02/06 06:07:20;;;;;;;4.47;4.03;;;;;;;;;;5099836;28;20212;-69
2023/02/06 06:09:49;;;;;;;8.10;3.80;;;;;;;;;;5099888;28;20233;-68
2023/02/06 06:12:18;;;;;;;4.80;3.73;;;;;;;;;;5099263;28;20669;-69
2023/02/06 06:14:46;;;;;;;5.23;4.03;;;;;;;;;;5099797;28;20236;-68
2023/02/06 06:17:14;;;;;;;5.23;4.27;;;;;;;;;;5099506;28;20209;-68
2023/02/06 06:19:42;;;;;;;4.53;4.13;;;;;;;;;;5099161;28;20535;-68
2023/02/06 06:22:10;;;;;;;4.43;4.03;;;;;;;;;;5099583;28;20526;-68
2023/02/06 06:24:39;;;;;;;7.87;4.17;;;;;;;;;;5099446;28;20493;-68
2023/02/06 06:27:09;;;;;;;8.63;5.10;;;;;;;;;;5099306;28;20450;-68
2023/02/06 06:29:37;;;;;;;7.37;4.53;;;;;;;;;;5099435;28;20483;-68
2023/02/06 06:32:05;;;;;;;4.77;4.10;;;;;;;;;;5099543;28;20232;-69
2023/02/06 06:34:33;;;;;;;5.20;4.20;;;;;;;;;;5098737;28;20260;-68
2023/02/06 06:37:01;;;;;;;6.60;4.57;;;;;;;;;;5098201;28;20252;-68
2023/02/06 06:39:29;;;;;;;7.30;4.53;;;;;;;;;;5098293;28;20232;-68
2023/02/06 06:41:57;;;;;;;9.50;4.93;;;;;;;;;;5097775;28;20296;-68
2023/02/06 06:44:27;;;;;;;4.73;4.10;;;;;;;;;;5095375;28;20222;-68
2023/02/06 06:46:55;;;;;;;6.70;4.40;;;;;;;;;;5097598;28;20209;-68
2023/02/06 06:49:23;;;;;;;13.50;6.37;;;;;;;;;;5097810;28;20472;-68
2023/02/06 06:51:51;;;;;;;10.63;6.70;;;;;;;;;;5095109;28;20443;-68
2023/02/06 06:54:19;;;;;;;11.17;6.50;;;;;;;;;;5097670;28;20252;-68
2023/02/06 06:56:47;;;;;;;6.57;4.60;;;;;;;;;;5097129;28;20756;-68
2023/02/06 06:59:15;;;;;;;5.80;4.33;;;;;;;;;;5097737;28;20204;-68
2023/02/06 07:01:44;;;;;;;8.20;5.20;;;;;;;;;;5097962;28;20205;-68
2023/02/06 07:04:13;;;;;;;6.23;4.77;;;;;;;;;;5094867;28;20277;-68
2023/02/06 07:06:41;;;;;;;6.50;4.77;;;;;;;;;;5097368;28;20288;-68
2023/02/06 07:09:08;;;;;;;5.70;5.07;;;;;;;;;;5097375;28;20221;-68
2023/02/06 07:11:36;;;;;;;6.83;4.50;;;;;;;;;;5096721;28;20519;-68
2023/02/06 07:14:04;;;;;;;5.97;5.07;;;;;;;;;;5096920;28;20503;-68
2023/02/06 07:16:32;;;;;;;6.73;4.50;;;;;;;;;;5097635;28;20909;-68
2023/02/06 07:19:02;;;;;;;5.70;5.10;;;;;;;;;;5096954;28;20493;-68
2023/02/06 07:21:30;;;;;;;4.77;4.23;;;;;;;;;;5096598;28;20198;-68
2023/02/06 07:23:58;;;;;;;5.97;5.17;;;;;;;;;;5096699;28;20218;-68
2023/02/06 07:26:26;;;;;;;5.63;4.63;;;;;;;;;;5096781;28;20205;-68
2023/02/06 07:28:54;;;;;;;7.10;5.00;;;;;;;;;;5096677;28;20554;-68
2023/02/06 07:31:22;;;;;;;5.53;4.67;;;;;;;;;;5096466;28;20432;-68
2023/02/06 07:33:50;;;;;;;5.20;4.70;;;;;;;;;;5096500;28;20479;-68
2023/02/06 07:36:19;;;;;;;7.03;5.27;;;;;;;;;;5097314;28;20570;-68
2023/02/06 07:38:47;;;;;;;6.83;5.20;;;;;;;;;;5097582;28;20442;-68
2023/02/06 07:41:16;;;;;;;5.70;4.40;;;;;;;;;;5097543;28;20289;-67
2023/02/06 07:43:44;;;;;;;5.33;4.40;;;;;;;;;;5097458;28;20550;-67
2023/02/06 07:46:12;;;;;;;11.27;7.03;;;;;;;;;;5097886;28;20432;-69
2023/02/06 07:48:41;;;;;;;40.13;19.10;;;;;;;;;;5094370;28;20454;-68
2023/02/06 07:51:09;;;;;;;14.77;9.03;;;;;;;;;;5097839;28;20988;-67
2023/02/06 07:53:38;;;;;;;6.17;5.43;;;;;;;;;;5097896;28;20495;-68
2023/02/06 07:56:10;;;;;;;7.83;5.47;;;;;;;;;;5097789;28;20443;-68
2023/02/06 07:58:38;;;;;;;5.97;4.47;;;;;;;;;;5097134;28;20436;-66
2023/02/06 08:01:06;;;;;;;6.30;4.73;;;;;;;;;;5095002;28;20438;-66
2023/02/06 08:03:34;;;;;;;9.27;5.07;;;;;;;;;;5096574;28;20459;-67
2023/02/06 08:06:07;;;;;;;7.50;4.83;;;;;;;;;;5097605;28;20501;-69
2023/02/06 08:08:35;;;;;;;7.93;5.10;;;;;;;;;;5097671;28;20440;-67
2023/02/06 08:11:06;;;;;;;8.27;6.70;;;;;;;;;;5096806;28;20510;-64
2023/02/06 08:13:34;;;;;;;6.23;5.47;;;;;;;;;;5095197;28;20993;-65
2023/02/06 08:16:06;;;;;;;5.47;4.47;;;;;;;;;;5097446;28;20446;-65
2023/02/06 08:18:34;;;;;;;6.20;4.63;;;;;;;;;;5097132;28;20197;-64
2023/02/06 08:21:03;;;;;;;6.03;5.33;;;;;;;;;;5097165;28;20285;-65
2023/02/06 08:23:31;;;;;;;10.17;5.73;;;;;;;;;;5097409;28;20252;-65
2023/02/06 08:26:02;;;;;;;6.70;5.47;;;;;;;;;;5094563;28;20280;-65
2023/02/06 08:28:33;;;;;;;5.83;5.03;;;;;;;;;;5097150;28;20204;-65
2023/02/06 08:31:02;;;;;;;5.17;4.63;;;;;;;;;;5096794;28;20304;-65
2023/02/06 08:33:33;;;;;;;6.37;5.00;;;;;;;;;;5095022;28;20228;-65
2023/02/06 08:36:01;;;;;;;6.53;5.20;;;;;;;;;;5097022;28;20259;-65
2023/02/06 08:38:29;;;;;;;6.37;5.33;;;;;;;;;;5097080;28;20198;-64
2023/02/06 08:40:58;;;;;;;6.80;5.20;;;;;;;;;;5097099;28;20442;-65
2023/02/06 08:43:26;;;;;;;7.60;5.33;;;;;;;;;;5096815;28;20784;-64
2023/02/06 08:45:56;;;;;;;7.80;5.77;;;;;;;;;;5097279;28;20566;-65
2023/02/06 08:48:24;;;;;;;6.00;4.97;;;;;;;;;;5097213;28;20217;-66
2023/02/06 08:51:00;;;;;;;10.23;5.50;;;;;;;;;;5096794;28;20859;-65
2023/02/06 08:53:28;;;;;;;6.30;5.00;;;;;;;;;;5094232;28;20224;-65
2023/02/06 08:55:59;;;;;;;6.47;5.30;;;;;;;;;;5094789;28;20202;-65
2023/02/06 08:58:27;;;;;;;5.30;4.80;;;;;;;;;;5096959;28;20209;-66
2023/02/06 09:00:58;;;;;;;6.73;5.43;;;;;;;;;;5097211;28;20194;-65
2023/02/06 09:03:27;;;;;;;4.77;4.30;;;;;;;;;;5096882;28;20222;-65
2023/02/06 09:05:59;;;;;;;6.07;4.30;;;;;;;;;;5097171;28;20208;-65
2023/02/06 09:08:36;;;;;;;8.33;5.20;;;;;;;;;;5097074;28;20227;-66
2023/02/06 09:11:05;;;;;;;19.30;9.77;;;;;;;;;;5096629;28;20226;-66
2023/02/06 09:13:33;;;;;;;12.33;7.67;;;;;;;;;;5096606;28;20283;-66
2023/02/06 09:16:03;;;;;;;10.47;6.60;;;;;;;;;;5099613;28;20206;-65
2023/02/06 09:18:31;;;;;;;5.53;4.90;;;;;;;;;;5100525;28;20206;-66
2023/02/06 09:21:04;;;;;;;8.63;5.63;;;;;;;;;;5100228;28;20208;-63
2023/02/06 09:23:32;;;;;;;6.00;5.00;;;;;;;;;;5099208;28;20228;-66
2023/02/06 09:26:00;;;;;;;6.53;5.10;;;;;;;;;;5099929;28;20526;-66
2023/02/06 09:28:28;;;;;;;7.20;5.00;;;;;;;;;;5100671;28;20214;-67
2023/02/06 09:30:56;;;;;;;6.37;4.90;;;;;;;;;;5100314;28;20222;-67
2023/02/06 09:33:25;;;;;;;6.63;4.67;;;;;;;;;;5100190;28;20238;-67
2023/02/06 09:36:01;;;;;;;9.27;5.03;;;;;;;;;;5099878;28;20240;-67
2023/02/06 09:38:29;;;;;;;4.90;4.20;;;;;;;;;;5100250;28;20262;-67
2023/02/06 09:40:59;;;;;;;8.33;4.70;;;;;;;;;;5086854;28;20201;-67
2023/02/06 09:43:28;;;;;;;6.40;5.40;;;;;;;;;;5100124;28;20253;-67
2023/02/06 09:45:58;;;;;;;6.43;5.10;;;;;;;;;;5100073;28;20703;-67
2023/02/06 09:48:29;;;;;;;5.07;4.57;;;;;;;;;;5099976;28;20334;-67
2023/02/06 09:51:00;;;;;;;7.57;5.10;;;;;;;;;;5099791;28;20635;-67
2023/02/06 09:53:30;;;;;;;5.33;4.47;;;;;;;;;;5100084;28;20261;-67
2023/02/06 09:56:01;;;;;;;5.50;4.80;;;;;;;;;;5100047;28;20241;-67
2023/02/06 09:58:34;;;;;;;4.67;4.27;;;;;;;;;;5099856;28;20675;-67
2023/02/06 10:01:06;;;;;;;5.23;4.73;;;;;;;;;;5100446;28;20212;-67
2023/02/06 10:04:11;;;;;;;5.47;4.30;;;;;;;;;;5099851;28;20225;-67
2023/02/06 10:06:44;;;;;;;4.80;4.23;;;;;;;;;;5017472;28;20228;-67
2023/02/06 10:09:16;;;;;;;8.83;4.90;;;;;;;;;;5017579;28;20214;-67
2023/02/06 10:11:47;;;;;;;5.13;4.30;;;;;;;;;;5061556;28;20230;-67
2023/02/06 10:14:21;;;;;;;11.77;4.60;;;;;;;;;;5099439;28;20620;-67
2023/02/06 10:16:53;;;;;;;5.33;4.67;;;;;;;;;;5099559;28;20205;-67
2023/02/06 10:19:24;;;;;;;8.80;5.00;;;;;;;;;;5099565;28;20211;-67
2023/02/06 10:21:55;;;;;;;13.53;4.73;;;;;;;;;;5099496;28;20229;-67
2023/02/06 10:24:30;;;;;;;5.33;4.73;;;;;;;;;;5099525;28;20595;-67
2023/02/06 10:26:59;;;;;;;5.53;4.60;;;;;;;;;;5098866;28;20288;-67
2023/02/06 10:29:28;;;;;;;6.30;5.13;;;;;;;;;;5099136;28;20729;-67
2023/02/06 10:32:03;;;;;;;7.20;4.80;;;;;;;;;;5099154;28;20229;-67
2023/02/06 10:34:51;;;;;;;5.67;4.80;;;;;;;;;;5099201;28;20236;-68
2023/02/06 10:37:31;;;;;;;7.03;4.87;;;;;;;;;;5099366;28;20216;-67
2023/02/06 10:40:12;;;;;;;5.17;4.47;;;;;;;;;;5099399;28;20212;-67
2023/02/06 10:42:44;;;;;;;6.53;4.47;;;;;;;;;;5098717;28;20602;-67
2023/02/06 10:45:15;;;;;;;5.93;4.53;;;;;;;;;;5098947;28;20730;-67
2023/02/06 10:47:49;;;;;;;6.00;5.03;;;;;;;;;;5099240;28;20200;-69
2023/02/06 10:50:22;;;;;;;6.17;4.73;;;;;;;;;;5098866;28;20225;-67
2023/02/06 10:52:52;;;;;;;6.20;4.90;;;;;;;;;;5098809;28;20592;-67
2023/02/06 10:55:22;;;;;;;6.07;4.17;;;;;;;;;;5098911;28;20209;-67
2023/02/06 10:57:54;;;;;;;4.70;4.23;;;;;;;;;;5099238;28;20210;-67
2023/02/06 11:00:24;;;;;;;5.90;4.30;;;;;;;;;;5098733;28;20673;-67
2023/02/06 11:02:55;;;;;;;7.47;4.83;;;;;;;;;;5098963;28;20229;-67
2023/02/06 11:05:35;;;;;;;5.33;4.43;;;;;;;;;;5098636;28;20205;-67
2023/02/06 11:08:09;;;;;;;7.27;4.80;;;;;;;;;;5098789;28;20211;-67
2023/02/06 11:10:38;;;;;;;4.30;3.60;;;;;;;;;;5098509;28;20227;-67
2023/02/06 11:13:07;;;;;;;8.73;4.00;;;;;;;;;;5098520;28;20225;-67
2023/02/06 11:15:37;;;;;;;5.40;3.93;;;;;;;;;;5098532;28;20667;-67
2023/02/06 11:18:07;;;;;;;4.10;3.70;;;;;;;;;;5098370;28;20667;-67
2023/02/06 11:20:36;;;;;;;4.37;3.70;;;;;;;;;;5098491;28;20202;-67
2023/02/06 11:23:16;;;;;;;7.17;3.80;;;;;;;;;;5098421;28;20289;-67
2023/02/06 11:25:45;;;;;;;5.23;3.70;;;;;;;;;;5098241;28;20205;-67
2023/02/06 11:28:14;;;;;;;3.97;3.57;;;;;;;;;;5098479;28;20317;-67
2023/02/06 11:30:53;;;;;;;4.37;3.50;;;;;;;;;;5098080;28;20214;-67
2023/02/06 11:33:23;;;;;;;6.40;4.23;;;;;;;;;;5098624;28;20232;-67
2023/02/06 11:35:52;;;;;;;5.87;3.93;;;;;;;;;;5098090;28;20260;-67
2023/02/06 11:38:23;;;;;;;4.13;3.73;;;;;;;;;;5097295;28;20601;-68
2023/02/06 11:40:55;;;;;;;5.23;3.90;;;;;;;;;;5097751;28;20565;-67
2023/02/06 11:43:23;;;;;;;7.00;4.13;;;;;;;;;;5097882;28;20253;-67
2023/02/06 11:46:05;;;;;;;7.27;4.33;;;;;;;;;;5097986;28;20657;-67
2023/02/06 11:48:34;;;;;;;4.03;3.53;;;;;;;;;;5097898;28;20661;-67
2023/02/06 11:51:02;;;;;;;3.40;3.07;;;;;;;;;;5097962;28;20229;-67
2023/02/06 11:53:32;;;;;;;4.37;3.97;;;;;;;;;;5097955;28;20360;-67
2023/02/06 11:56:02;;;;;;;4.80;3.90;;;;;;;;;;5098072;28;20205;-67
2023/02/06 11:58:31;;;;;;;4.97;3.83;;;;;;;;;;5097751;28;20201;-67
2023/02/06 12:01:00;;;;;;;4.43;4.03;;;;;;;;;;5097705;28;20239;-67
2023/02/06 12:03:30;;;;;;;4.33;3.93;;;;;;;;;;5097797;28;20659;-67
2023/02/06 12:06:01;;;;;;;7.53;4.20;;;;;;;;;;5097813;28;20680;-67
2023/02/06 12:08:36;;;;;;;5.17;4.13;;;;;;;;;;5097675;28;20210;-67
2023/02/06 12:11:05;;;;;;;4.33;3.93;;;;;;;;;;5097552;28;20204;-67
2023/02/06 12:13:37;;;;;;;4.93;4.43;;;;;;;;;;5097555;28;20221;-67
2023/02/06 12:16:07;;;;;;;5.43;4.40;;;;;;;;;;5097497;28;20664;-67
2023/02/06 12:18:36;;;;;;;7.33;4.37;;;;;;;;;;5097566;28;20302;-67
2023/02/06 12:21:05;;;;;;;5.27;3.97;;;;;;;;;;5097445;28;20548;-67
2023/02/06 12:23:37;;;;;;;7.13;4.03;;;;;;;;;;5097792;28;20229;-67
2023/02/06 12:26:08;;;;;;;6.60;3.90;;;;;;;;;;5097523;28;20205;-67
2023/02/06 12:28:38;;;;;;;4.27;3.87;;;;;;;;;;5097489;28;20237;-68
2023/02/06 12:31:10;;;;;;;4.47;3.93;;;;;;;;;;5097379;28;20691;-67
2023/02/06 12:33:42;;;;;;;4.00;3.60;;;;;;;;;;5097423;28;20570;-68
2023/02/06 12:36:15;;;;;;;4.40;4.00;;;;;;;;;;5097272;28;20263;-68
2023/02/06 12:38:47;;;;;;;5.90;3.70;;;;;;;;;;5097276;28;20204;-68
2023/02/06 12:41:38;;;;;;;4.90;4.40;;;;;;;;;;5097284;28;20262;-69
2023/02/06 12:44:12;;;;;;;4.33;3.93;;;;;;;;;;5089507;28;20225;-67
2023/02/06 12:46:41;;;;;;;4.53;3.70;;;;;;;;;;5097115;28;20663;-68
2023/02/06 12:49:14;;;;;;;4.50;3.83;;;;;;;;;;5098480;28;20233;-68
2023/02/06 12:51:48;;;;;;;4.43;4.03;;;;;;;;;;5100981;28;20221;-67
2023/02/06 12:54:21;;;;;;;4.43;3.87;;;;;;;;;;5101294;28;20253;-68
2023/02/06 12:56:52;;;;;;;4.73;3.60;;;;;;;;;;5100940;28;20216;-67
2023/02/06 12:59:33;;;;;;;5.43;4.47;;;;;;;;;;5100653;28;20216;-68
2023/02/06 13:02:09;;;;;;;5.10;3.57;;;;;;;;;;5099191;28;20236;-67
2023/02/06 13:04:37;;;;;;;5.87;4.27;;;;;;;;;;5100521;28;20225;-67
2023/02/06 13:07:07;;;;;;;4.47;3.97;;;;;;;;;;5100945;28;20205;-67
2023/02/06 13:09:38;;;;;;;4.20;3.50;;;;;;;;;;5100834;28;20205;-68
2023/02/06 13:12:13;;;;;;;4.33;3.90;;;;;;;;;;5099012;28;20257;-68
2023/02/06 13:14:45;;;;;;;5.50;4.27;;;;;;;;;;5095882;28;20283;-67
2023/02/06 13:17:16;;;;;;;4.37;3.97;;;;;;;;;;5099360;28;20211;-68
2023/02/06 13:19:52;;;;;;;5.57;3.97;;;;;;;;;;5100552;28;20244;-67
2023/02/06 13:22:34;;;;;;;5.10;3.87;;;;;;;;;;5100607;28;20205;-66
2023/02/06 13:25:36;;;;;;;6.13;4.23;;;;;;;;;;5099076;28;20775;-69
2023/02/06 13:28:20;;;;;;;4.70;3.83;;;;;;;;;;5088396;28;20243;-68
2023/02/06 13:30:49;;;;;;;4.47;3.57;;;;;;;;;;5089219;28;20232;-67
2023/02/06 13:33:19;;;;;;;3.80;3.43;;;;;;;;;;5097562;28;20229;-67
2023/02/06 13:35:56;;;;;;;5.03;3.90;;;;;;;;;;5099123;28;20244;-68
2023/02/06 13:38:27;;;;;;;4.80;4.30;;;;;;;;;;5099986;28;20288;-67
2023/02/06 13:41:13;;;;;;;5.60;4.10;;;;;;;;;;5100118;28;20210;-67
2023/02/06 13:43:46;;;;;;;5.10;4.60;;;;;;;;;;5099801;28;20598;-67
2023/02/06 13:46:15;;;;;;;4.43;4.03;;;;;;;;;;5091327;28;20237;-67
2023/02/06 13:48:56;;;;;;;7.03;4.27;;;;;;;;;;5090339;28;20206;-66
2023/02/06 13:51:31;;;;;;;5.17;3.67;;;;;;;;;;5099826;28;20209;-67
2023/02/06 13:54:06;;;;;;;4.00;3.60;;;;;;;;;;5099677;28;20239;-67
2023/02/06 13:56:40;;;;;;;5.20;3.97;;;;;;;;;;5099412;28;20201;-67
2023/02/06 13:59:14;;;;;;;4.10;3.70;;;;;;;;;;5099376;28;20214;-66
2023/02/06 14:01:46;;;;;;;4.10;3.80;;;;;;;;;;5098326;28;20210;-64
2023/02/06 14:04:18;;;;;;;8.00;4.37;;;;;;;;;;5097408;28;20235;-65
2023/02/06 14:06:55;;;;;;;13.43;4.00;;;;;;;;;;5087167;28;20241;-65
2023/02/06 14:09:38;;;;;;;4.60;4.17;;;;;;;;;;5099555;28;20235;-66
2023/02/06 14:15:04;;;;;;;7.23;5.13;;;;;;;;;;5099432;28;20233;-65
2023/02/06 14:17:38;;;;;;;5.70;4.40;;;;;;;;;;5099440;28;20209;-68
2023/02/06 14:20:13;;;;;;;5.60;4.77;;;;;;;;;;5099489;28;20200;-67
2023/02/06 14:22:44;;;;;;;5.80;4.53;;;;;;;;;;5093674;28;20221;-67
2023/02/06 14:25:20;;;;;;;4.93;4.30;;;;;;;;;;5098958;28;20680;-66
2023/02/06 14:27:55;;;;;;;5.10;4.23;;;;;;;;;;5099111;28;20626;-66
2023/02/06 14:30:29;;;;;;;5.37;4.17;;;;;;;;;;5099087;28;20768;-66
2023/02/06 14:33:01;;;;;;;5.17;4.37;;;;;;;;;;5098864;28;20256;-65
2023/02/06 14:35:45;;;;;;;5.53;4.73;;;;;;;;;;5098873;28;20233;-66
2023/02/06 14:38:28;;;;;;;4.33;3.93;;;;;;;;;;5094460;28;20568;-66
2023/02/06 14:40:58;;;;;;;6.77;4.73;;;;;;;;;;5095516;28;20235;-67
2023/02/06 14:43:28;;;;;;;4.70;4.20;;;;;;;;;;5098884;28;20221;-65
2023/02/06 14:45:59;;;;;;;4.47;4.07;;;;;;;;;;5098867;28;20672;-65
2023/02/06 14:48:39;;;;;;;5.27;4.47;;;;;;;;;;5098659;28;20205;-66
2023/02/06 14:51:08;;;;;;;7.87;4.57;;;;;;;;;;5099178;28;20201;-65
2023/02/06 14:53:38;;;;;;;7.57;4.87;;;;;;;;;;5098494;28;20690;-65
2023/02/06 14:56:07;;;;;;;5.97;4.37;;;;;;;;;;5089147;28;20209;-65
2023/02/06 14:58:36;;;;;;;6.37;4.30;;;;;;;;;;5096158;28;20220;-65
2023/02/06 15:01:20;;;;;;;5.03;4.20;;;;;;;;;;5098740;28;20240;-65
2023/02/06 15:03:51;;;;;;;4.87;4.10;;;;;;;;;;5098551;28;20222;-67
2023/02/06 15:06:35;;;;;;;5.23;4.37;;;;;;;;;;5098348;28;20321;-66
2023/02/06 15:09:04;;;;;;;6.57;4.37;;;;;;;;;;5096509;28;20210;-66